Anzahl Datensätze: 288
min. Temperatur: 0.2 °C
max. Temperatur: 12.8 °C
max. Windgeschwindigkeit: 40.3 km/h
Niederschlagsumme: 0.2 mm
| Datum |
Zeit |
Temp °C |
Feuchte % |
Taupunkt °C |
Luftdruck hPa |
Wind km/h |
Windrichtung |
Strahlung w/m² |
Niederschlag mm |
|---|---|---|---|---|---|---|---|---|---|
| 14.03.2020 | 00:04 | 2.3 | 88 | 0.5 | 1021.3 | 3.2 | SSW | 0 | 0.2 |
| 14.03.2020 | 00:08 | 2.3 | 88 | 0.5 | 1021.3 | 4.7 | SSW | 0 | 0.0 |
| 14.03.2020 | 00:14 | 2.4 | 88 | 0.6 | 1021.2 | 4.7 | SSW | 0 | 0.0 |
| 14.03.2020 | 00:18 | 2.6 | 89 | 1.0 | 1021.2 | 6.5 | SSW | 0 | 0.0 |
| 14.03.2020 | 00:24 | 2.7 | 88 | 0.9 | 1021.2 | 6.5 | SSW | 0 | 0.0 |
| 14.03.2020 | 00:28 | 2.8 | 88 | 1.0 | 1021.1 | 6.5 | SSW | 0 | 0.0 |
| 14.03.2020 | 00:34 | 2.7 | 88 | 0.9 | 1021.1 | 4.7 | SSW | 0 | 0.0 |
| 14.03.2020 | 00:38 | 2.7 | 88 | 0.9 | 1021.1 | 6.5 | SSW | 0 | 0.0 |
| 14.03.2020 | 00:44 | 2.8 | 88 | 1.0 | 1021.1 | 6.5 | SSW | 0 | 0.0 |
| 14.03.2020 | 00:48 | 2.7 | 88 | 0.9 | 1021.1 | 4.7 | SSW | 0 | 0.0 |
| 14.03.2020 | 00:54 | 2.5 | 88 | 0.7 | 1021.1 | 3.2 | SSW | 0 | 0.0 |
| 14.03.2020 | 00:58 | 2.4 | 88 | 0.6 | 1021.1 | 1.4 | SSW | 0 | 0.0 |
| 14.03.2020 | 01:04 | 2.4 | 89 | 0.8 | 1021.2 | 3.2 | SSW | 0 | 0.0 |
| 14.03.2020 | 01:08 | 2.4 | 89 | 0.8 | 1021.2 | 3.2 | S | 0 | 0.0 |
| 14.03.2020 | 01:14 | 2.4 | 89 | 0.8 | 1021.1 | 3.2 | S | 0 | 0.0 |
| 14.03.2020 | 01:18 | 2.4 | 89 | 0.8 | 1021.1 | 1.4 | S | 0 | 0.0 |
| 14.03.2020 | 01:24 | 2.4 | 89 | 0.8 | 1021.1 | 3.2 | SSW | 0 | 0.0 |
| 14.03.2020 | 01:28 | 2.3 | 89 | 0.7 | 1021.1 | 4.7 | SSW | 0 | 0.0 |
| 14.03.2020 | 01:34 | 2.0 | 89 | 0.4 | 1021.1 | 3.2 | SSW | 0 | 0.0 |
| 14.03.2020 | 01:38 | 1.9 | 90 | 0.4 | 1021.2 | 3.2 | SSW | 0 | 0.0 |
| 14.03.2020 | 01:44 | 1.9 | 90 | 0.4 | 1021.1 | 4.7 | SSW | 0 | 0.0 |
| 14.03.2020 | 01:48 | 2.0 | 90 | 0.5 | 1021.1 | 4.7 | SSW | 0 | 0.0 |
| 14.03.2020 | 01:54 | 1.9 | 90 | 0.4 | 1021.1 | 3.2 | SSW | 0 | 0.0 |
| 14.03.2020 | 01:58 | 1.8 | 90 | 0.3 | 1021.1 | 1.4 | SSW | 0 | 0.0 |
| 14.03.2020 | 02:04 | 1.6 | 91 | 0.3 | 1021.1 | 0.0 | SSW | 0 | 0.0 |
| 14.03.2020 | 02:08 | 1.4 | 91 | 0.1 | 1021.1 | 0.0 | SSW | 0 | 0.0 |
| 14.03.2020 | 02:14 | 1.2 | 91 | -0.1 | 1021.1 | 0.0 | SSW | 0 | 0.0 |
| 14.03.2020 | 02:18 | 1.2 | 91 | -0.1 | 1021.1 | 0.0 | SSW | 0 | 0.0 |
| 14.03.2020 | 02:24 | 1.1 | 92 | -0.1 | 1021.1 | 0.0 | SSW | 0 | 0.0 |
| 14.03.2020 | 02:28 | 1.2 | 92 | 0.0 | 1021.1 | 0.0 | SSW | 0 | 0.0 |
| 14.03.2020 | 02:34 | 0.9 | 92 | -0.3 | 1021.1 | 0.0 | SSW | 0 | 0.0 |
| 14.03.2020 | 02:38 | 0.9 | 92 | -0.3 | 1021.0 | 0.0 | SSW | 0 | 0.0 |
| 14.03.2020 | 02:44 | 0.8 | 92 | -0.4 | 1021.0 | 0.0 | SSW | 0 | 0.0 |
| 14.03.2020 | 02:48 | 0.8 | 92 | -0.4 | 1020.9 | 1.4 | SSW | 0 | 0.0 |
| 14.03.2020 | 02:54 | 0.7 | 92 | -0.5 | 1021.0 | 1.4 | SSW | 0 | 0.0 |
| 14.03.2020 | 02:58 | 0.7 | 92 | -0.5 | 1021.0 | 1.4 | SSW | 0 | 0.0 |
| 14.03.2020 | 03:04 | 0.6 | 92 | -0.5 | 1020.9 | 1.4 | WSW | 0 | 0.0 |
| 14.03.2020 | 03:08 | 0.6 | 93 | -0.4 | 1020.9 | 3.2 | WSW | 0 | 0.0 |
| 14.03.2020 | 03:14 | 0.6 | 93 | -0.4 | 1020.9 | 1.4 | WSW | 0 | 0.0 |
| 14.03.2020 | 03:18 | 0.7 | 93 | -0.3 | 1020.9 | 1.4 | WSW | 0 | 0.0 |
| 14.03.2020 | 03:24 | 0.4 | 92 | -0.7 | 1020.8 | 3.2 | WSW | 0 | 0.0 |
| 14.03.2020 | 03:28 | 0.2 | 92 | -0.9 | 1020.8 | 3.2 | WSW | 0 | 0.0 |
| 14.03.2020 | 03:34 | 0.2 | 93 | -0.8 | 1020.7 | 3.2 | WSW | 0 | 0.0 |
| 14.03.2020 | 03:38 | 0.3 | 93 | -0.7 | 1020.7 | 3.2 | WSW | 0 | 0.0 |
| 14.03.2020 | 03:44 | 0.4 | 93 | -0.6 | 1020.6 | 1.4 | WSW | 0 | 0.0 |
| 14.03.2020 | 03:48 | 0.5 | 93 | -0.5 | 1020.6 | 1.4 | WSW | 0 | 0.0 |
| 14.03.2020 | 03:54 | 0.6 | 94 | -0.3 | 1020.5 | 0.0 | WSW | 0 | 0.0 |
| 14.03.2020 | 03:58 | 0.7 | 94 | -0.2 | 1020.6 | 0.0 | WSW | 0 | 0.0 |
| 14.03.2020 | 04:04 | 0.8 | 93 | -0.2 | 1020.6 | 0.0 | WSW | 0 | 0.0 |
| 14.03.2020 | 04:08 | 0.8 | 93 | -0.2 | 1020.6 | 0.0 | WSW | 0 | 0.0 |
| 14.03.2020 | 04:14 | 0.9 | 94 | 0.0 | 1020.6 | 0.0 | WSW | 0 | 0.0 |
| 14.03.2020 | 04:18 | 1.0 | 94 | 0.1 | 1020.6 | 1.4 | WSW | 0 | 0.0 |
| 14.03.2020 | 04:24 | 1.1 | 93 | 0.1 | 1020.6 | 0.0 | WSW | 0 | 0.0 |
| 14.03.2020 | 04:28 | 1.1 | 93 | 0.1 | 1020.6 | 0.0 | WSW | 0 | 0.0 |
| 14.03.2020 | 04:34 | 1.1 | 93 | 0.1 | 1020.6 | 0.0 | WSW | 0 | 0.0 |
| 14.03.2020 | 04:38 | 1.0 | 93 | 0.0 | 1020.7 | 0.0 | WSW | 0 | 0.0 |
| 14.03.2020 | 04:44 | 1.0 | 94 | 0.1 | 1020.7 | 0.0 | WSW | 0 | 0.0 |
| 14.03.2020 | 04:48 | 1.1 | 93 | 0.1 | 1020.6 | 0.0 | WSW | 0 | 0.0 |
| 14.03.2020 | 04:54 | 1.0 | 94 | 0.1 | 1020.7 | 0.0 | WSW | 0 | 0.0 |
| 14.03.2020 | 04:58 | 1.0 | 93 | 0.0 | 1020.7 | 0.0 | WSW | 0 | 0.0 |
| 14.03.2020 | 05:04 | 0.9 | 93 | -0.1 | 1020.6 | 0.0 | WSW | 0 | 0.0 |
| 14.03.2020 | 05:08 | 0.9 | 93 | -0.1 | 1020.7 | 0.0 | WSW | 0 | 0.0 |
| 14.03.2020 | 05:14 | 0.8 | 93 | -0.2 | 1020.7 | 1.4 | WSW | 0 | 0.0 |
| 14.03.2020 | 05:18 | 0.8 | 93 | -0.2 | 1020.8 | 1.4 | WSW | 0 | 0.0 |
| 14.03.2020 | 05:24 | 0.8 | 93 | -0.2 | 1020.8 | 0.0 | WSW | 0 | 0.0 |
| 14.03.2020 | 05:28 | 0.8 | 93 | -0.2 | 1020.8 | 0.0 | WSW | 0 | 0.0 |
| 14.03.2020 | 05:34 | 0.7 | 93 | -0.3 | 1020.8 | 0.0 | WSW | 0 | 0.0 |
| 14.03.2020 | 05:38 | 0.7 | 93 | -0.3 | 1020.8 | 0.0 | WSW | 0 | 0.0 |
| 14.03.2020 | 05:44 | 0.7 | 93 | -0.3 | 1020.7 | 0.0 | WSW | 0 | 0.0 |
| 14.03.2020 | 05:48 | 0.7 | 93 | -0.3 | 1020.7 | 0.0 | WSW | 0 | 0.0 |
| 14.03.2020 | 05:54 | 0.6 | 93 | -0.4 | 1020.7 | 0.0 | WSW | 0 | 0.0 |
| 14.03.2020 | 05:58 | 0.6 | 93 | -0.4 | 1020.7 | 0.0 | WSW | 0 | 0.0 |
| 14.03.2020 | 06:04 | 0.6 | 93 | -0.4 | 1020.7 | 0.0 | WSW | 0 | 0.0 |
| 14.03.2020 | 06:08 | 0.6 | 93 | -0.4 | 1020.7 | 0.0 | WSW | 0 | 0.0 |
| 14.03.2020 | 06:14 | 0.5 | 93 | -0.5 | 1020.8 | 0.0 | WSW | 0 | 0.0 |
| 14.03.2020 | 06:18 | 0.5 | 93 | -0.5 | 1020.8 | 0.0 | WSW | 0 | 0.0 |
| 14.03.2020 | 06:24 | 0.4 | 93 | -0.6 | 1020.8 | 0.0 | WSW | 0 | 0.0 |
| 14.03.2020 | 06:28 | 0.5 | 93 | -0.5 | 1020.8 | 0.0 | WSW | 0 | 0.0 |
| 14.03.2020 | 06:34 | 0.4 | 93 | -0.6 | 1020.8 | 0.0 | WSW | 0 | 0.0 |
| 14.03.2020 | 06:38 | 0.4 | 93 | -0.6 | 1020.7 | 0.0 | WSW | 0 | 0.0 |
| 14.03.2020 | 06:44 | 0.4 | 93 | -0.6 | 1020.7 | 0.0 | WSW | 5 | 0.0 |
| 14.03.2020 | 06:48 | 0.4 | 93 | -0.6 | 1020.6 | 0.0 | WSW | 5 | 0.0 |
| 14.03.2020 | 06:54 | 0.4 | 94 | -0.5 | 1020.7 | 0.0 | WNW | 9 | 0.0 |
| 14.03.2020 | 06:58 | 0.4 | 94 | -0.5 | 1020.7 | 0.0 | WNW | 12 | 0.0 |
| 14.03.2020 | 07:04 | 0.4 | 94 | -0.5 | 1020.6 | 0.0 | WSW | 16 | 0.0 |
| 14.03.2020 | 07:08 | 0.4 | 94 | -0.5 | 1020.7 | 0.0 | SSW | 19 | 0.0 |
| 14.03.2020 | 07:14 | 0.5 | 94 | -0.4 | 1020.7 | 0.0 | SO | 23 | 0.0 |
| 14.03.2020 | 07:18 | 0.5 | 94 | -0.4 | 1020.7 | 0.0 | SO | 23 | 0.0 |
| 14.03.2020 | 07:24 | 0.6 | 94 | -0.3 | 1020.7 | 0.0 | NNO | 19 | 0.0 |
| 14.03.2020 | 07:28 | 0.6 | 94 | -0.3 | 1020.6 | 0.0 | NNO | 18 | 0.0 |
| 14.03.2020 | 07:34 | 0.7 | 94 | -0.2 | 1020.6 | 0.0 | NNO | 19 | 0.0 |
| 14.03.2020 | 07:38 | 0.7 | 94 | -0.2 | 1020.7 | 0.0 | WSW | 21 | 0.0 |
| 14.03.2020 | 07:44 | 0.7 | 94 | -0.2 | 1020.8 | 0.0 | WNW | 26 | 0.0 |
| 14.03.2020 | 07:48 | 0.8 | 94 | -0.1 | 1020.7 | 0.0 | WNW | 33 | 0.0 |
| 14.03.2020 | 07:54 | 0.8 | 94 | -0.1 | 1020.7 | 0.0 | WNW | 44 | 0.0 |
| 14.03.2020 | 07:58 | 0.8 | 94 | -0.1 | 1020.8 | 0.0 | NW | 54 | 0.0 |
| 14.03.2020 | 08:04 | 1.1 | 95 | 0.4 | 1021.0 | 0.0 | NNW | 77 | 0.0 |
| 14.03.2020 | 08:08 | 1.3 | 95 | 0.6 | 1021.1 | 0.0 | NNW | 98 | 0.0 |
| 14.03.2020 | 08:14 | 1.6 | 95 | 0.9 | 1021.1 | 0.0 | NNW | 105 | 0.0 |
| 14.03.2020 | 08:18 | 1.8 | 95 | 1.1 | 1021.2 | 0.0 | NNW | 111 | 0.0 |
| 14.03.2020 | 08:24 | 2.1 | 95 | 1.4 | 1021.2 | 0.0 | NNO | 139 | 0.0 |
| 14.03.2020 | 08:28 | 2.3 | 95 | 1.6 | 1021.3 | 0.0 | NNO | 141 | 0.0 |
| 14.03.2020 | 08:34 | 2.6 | 94 | 1.7 | 1021.3 | 0.0 | NNO | 142 | 0.0 |
| 14.03.2020 | 08:38 | 2.7 | 94 | 1.8 | 1021.3 | 0.0 | NNO | 290 | 0.0 |
| 14.03.2020 | 08:44 | 2.8 | 94 | 1.9 | 1021.3 | 0.0 | NNO | 174 | 0.0 |
| 14.03.2020 | 08:48 | 2.9 | 93 | 1.9 | 1021.3 | 0.0 | NNO | 174 | 0.0 |
| 14.03.2020 | 08:54 | 3.3 | 93 | 2.3 | 1021.3 | 0.0 | NNO | 214 | 0.0 |
| 14.03.2020 | 08:58 | 3.6 | 93 | 2.6 | 1021.4 | 0.0 | NNO | 336 | 0.0 |
| 14.03.2020 | 09:04 | 4.1 | 91 | 2.8 | 1021.4 | 0.0 | NNO | 315 | 0.0 |
| 14.03.2020 | 09:08 | 4.3 | 90 | 2.8 | 1021.5 | 0.0 | NNO | 301 | 0.0 |
| 14.03.2020 | 09:14 | 4.7 | 89 | 3.0 | 1021.4 | 0.0 | NNO | 221 | 0.0 |
| 14.03.2020 | 09:18 | 5.0 | 88 | 3.2 | 1021.5 | 0.0 | NNO | 176 | 0.0 |
| 14.03.2020 | 09:24 | 5.4 | 87 | 3.4 | 1021.5 | 0.0 | NNO | 274 | 0.0 |
| 14.03.2020 | 09:28 | 5.6 | 86 | 3.4 | 1021.6 | 0.0 | N | 390 | 0.0 |
| 14.03.2020 | 09:34 | 5.6 | 85 | 3.3 | 1021.6 | 0.0 | N | 330 | 0.0 |
| 14.03.2020 | 09:38 | 5.8 | 84 | 3.3 | 1021.6 | 0.0 | N | 276 | 0.0 |
| 14.03.2020 | 09:44 | 6.1 | 82 | 3.3 | 1021.6 | 0.0 | N | 216 | 0.0 |
| 14.03.2020 | 09:48 | 6.3 | 82 | 3.5 | 1021.6 | 0.0 | N | 207 | 0.0 |
| 14.03.2020 | 09:54 | 6.7 | 81 | 3.7 | 1021.6 | 0.0 | N | 267 | 0.0 |
| 14.03.2020 | 09:58 | 6.8 | 80 | 3.6 | 1021.7 | 0.0 | N | 267 | 0.0 |
| 14.03.2020 | 10:04 | 7.1 | 79 | 3.7 | 1021.6 | 0.0 | N | 309 | 0.0 |
| 14.03.2020 | 10:08 | 7.3 | 77 | 3.5 | 1021.5 | 0.0 | N | 385 | 0.0 |
| 14.03.2020 | 10:14 | 7.4 | 76 | 3.4 | 1021.5 | 0.0 | N | 413 | 0.0 |
| 14.03.2020 | 10:18 | 7.7 | 75 | 3.5 | 1021.6 | 0.0 | N | 418 | 0.0 |
| 14.03.2020 | 10:24 | 8.1 | 73 | 3.6 | 1021.6 | 0.0 | N | 446 | 0.0 |
| 14.03.2020 | 10:28 | 8.2 | 70 | 3.1 | 1021.6 | 0.0 | N | 464 | 0.0 |
| 14.03.2020 | 10:34 | 8.3 | 70 | 3.1 | 1021.6 | 0.0 | SSW | 555 | 0.0 |
| 14.03.2020 | 10:38 | 8.6 | 70 | 3.4 | 1021.6 | 0.0 | SO | 580 | 0.0 |
| 14.03.2020 | 10:44 | 8.8 | 68 | 3.2 | 1021.7 | 0.0 | SSO | 543 | 0.0 |
| 14.03.2020 | 10:48 | 9.0 | 68 | 3.4 | 1021.7 | 0.0 | NNO | 483 | 0.0 |
| 14.03.2020 | 10:54 | 9.0 | 66 | 3.0 | 1021.7 | 0.0 | NNO | 327 | 0.0 |
| 14.03.2020 | 10:58 | 9.1 | 67 | 3.3 | 1021.6 | 0.0 | NNO | 350 | 0.0 |
| 14.03.2020 | 11:04 | 9.2 | 68 | 3.6 | 1021.6 | 0.0 | SO | 557 | 0.0 |
| 14.03.2020 | 11:08 | 9.4 | 66 | 3.4 | 1021.6 | 0.0 | SO | 541 | 0.0 |
| 14.03.2020 | 11:14 | 9.5 | 65 | 3.2 | 1021.5 | 0.0 | SO | 594 | 0.0 |
| 14.03.2020 | 11:18 | 9.7 | 66 | 3.7 | 1021.5 | 0.0 | SO | 515 | 0.0 |
| 14.03.2020 | 11:24 | 10.2 | 64 | 3.7 | 1021.5 | 0.0 | SO | 679 | 0.0 |
| 14.03.2020 | 11:28 | 10.3 | 65 | 4.0 | 1021.4 | 0.0 | N | 577 | 0.0 |
| 14.03.2020 | 11:34 | 10.3 | 64 | 3.8 | 1021.4 | 0.0 | NW | 383 | 0.0 |
| 14.03.2020 | 11:38 | 10.1 | 63 | 3.4 | 1021.4 | 0.0 | ONO | 494 | 0.0 |
| 14.03.2020 | 11:44 | 10.2 | 65 | 3.9 | 1021.4 | 0.0 | NO | 446 | 0.0 |
| 14.03.2020 | 11:48 | 10.4 | 65 | 4.1 | 1021.3 | 0.0 | NO | 499 | 0.0 |
| 14.03.2020 | 11:54 | 10.8 | 64 | 4.3 | 1021.3 | 0.0 | N | 526 | 0.0 |
| 14.03.2020 | 11:58 | 10.8 | 63 | 4.0 | 1021.3 | 0.0 | N | 459 | 0.0 |
| 14.03.2020 | 12:04 | 10.7 | 62 | 3.7 | 1021.2 | 0.0 | SSW | 443 | 0.0 |
| 14.03.2020 | 12:08 | 10.6 | 61 | 3.4 | 1021.2 | 0.0 | SSW | 425 | 0.0 |
| 14.03.2020 | 12:14 | 10.4 | 62 | 3.4 | 1021.3 | 0.0 | S | 404 | 0.0 |
| 14.03.2020 | 12:18 | 10.8 | 62 | 3.8 | 1021.2 | 0.0 | ONO | 404 | 0.0 |
| 14.03.2020 | 12:24 | 10.8 | 60 | 3.3 | 1021.2 | 0.0 | WSW | 336 | 0.0 |
| 14.03.2020 | 12:28 | 10.9 | 59 | 3.2 | 1021.1 | 0.0 | WSW | 417 | 0.0 |
| 14.03.2020 | 12:34 | 11.1 | 59 | 3.4 | 1021.1 | 0.0 | SSO | 469 | 0.0 |
| 14.03.2020 | 12:38 | 11.0 | 59 | 3.3 | 1021.1 | 0.0 | SSW | 420 | 0.0 |
| 14.03.2020 | 12:44 | 10.9 | 60 | 3.4 | 1021.1 | 0.0 | SO | 563 | 0.0 |
| 14.03.2020 | 12:48 | 11.3 | 59 | 3.6 | 1021.1 | 0.0 | SSO | 710 | 0.0 |
| 14.03.2020 | 12:54 | 11.6 | 57 | 3.4 | 1021.0 | 1.4 | SW | 758 | 0.0 |
| 14.03.2020 | 12:58 | 11.7 | 59 | 4.0 | 1021.0 | 1.4 | SO | 800 | 0.0 |
| 14.03.2020 | 13:04 | 11.8 | 57 | 3.6 | 1020.9 | 1.4 | S | 786 | 0.0 |
| 14.03.2020 | 13:08 | 11.9 | 56 | 3.4 | 1020.8 | 1.4 | S | 784 | 0.0 |
| 14.03.2020 | 13:14 | 11.9 | 57 | 3.6 | 1020.8 | 1.4 | SW | 737 | 0.0 |
| 14.03.2020 | 13:18 | 12.2 | 53 | 2.9 | 1020.8 | 3.2 | W | 828 | 0.0 |
| 14.03.2020 | 13:24 | 12.1 | 50 | 2.0 | 1020.8 | 3.2 | S | 851 | 0.0 |
| 14.03.2020 | 13:28 | 12.1 | 54 | 3.1 | 1020.7 | 1.4 | S | 831 | 0.0 |
| 14.03.2020 | 13:34 | 12.8 | 51 | 2.9 | 1020.7 | 1.4 | SSW | 907 | 0.0 |
| 14.03.2020 | 13:38 | 12.8 | 51 | 2.9 | 1020.6 | 3.2 | S | 898 | 0.0 |
| 14.03.2020 | 13:44 | 12.5 | 49 | 2.1 | 1020.6 | 3.2 | NO | 823 | 0.0 |
| 14.03.2020 | 13:48 | 12.7 | 51 | 2.8 | 1020.5 | 1.4 | S | 779 | 0.0 |
| 14.03.2020 | 13:54 | 12.3 | 45 | 0.7 | 1020.6 | 3.2 | S | 265 | 0.0 |
| 14.03.2020 | 13:58 | 11.7 | 46 | 0.5 | 1020.6 | 3.2 | SSO | 257 | 0.0 |
| 14.03.2020 | 14:04 | 11.4 | 49 | 1.1 | 1020.5 | 0.0 | SO | 197 | 0.0 |
| 14.03.2020 | 14:08 | 11.4 | 50 | 1.3 | 1020.5 | 0.0 | SSW | 174 | 0.0 |
| 14.03.2020 | 14:14 | 11.3 | 57 | 3.1 | 1020.6 | 1.4 | NNW | 139 | 0.0 |
| 14.03.2020 | 14:18 | 11.1 | 60 | 3.6 | 1020.6 | 3.2 | NW | 130 | 0.0 |
| 14.03.2020 | 14:24 | 10.8 | 61 | 3.6 | 1020.7 | 6.5 | NW | 128 | 0.0 |
| 14.03.2020 | 14:28 | 10.7 | 61 | 3.5 | 1020.7 | 6.5 | NW | 120 | 0.0 |
| 14.03.2020 | 14:34 | 10.7 | 62 | 3.7 | 1020.7 | 4.7 | N | 120 | 0.0 |
| 14.03.2020 | 14:38 | 10.6 | 62 | 3.6 | 1020.7 | 3.2 | NW | 123 | 0.0 |
| 14.03.2020 | 14:44 | 10.5 | 63 | 3.8 | 1020.7 | 3.2 | NNO | 132 | 0.0 |
| 14.03.2020 | 14:48 | 10.5 | 62 | 3.5 | 1020.7 | 4.7 | N | 127 | 0.0 |
| 14.03.2020 | 14:54 | 10.3 | 62 | 3.3 | 1020.7 | 6.5 | N | 118 | 0.0 |
| 14.03.2020 | 14:58 | 10.3 | 63 | 3.6 | 1020.7 | 6.5 | N | 113 | 0.0 |
| 14.03.2020 | 15:04 | 10.3 | 62 | 3.3 | 1020.8 | 4.7 | N | 109 | 0.0 |
| 14.03.2020 | 15:08 | 10.2 | 60 | 2.8 | 1020.7 | 4.7 | NNW | 113 | 0.0 |
| 14.03.2020 | 15:14 | 10.2 | 61 | 3.0 | 1020.7 | 3.2 | N | 120 | 0.0 |
| 14.03.2020 | 15:18 | 10.2 | 61 | 3.0 | 1020.7 | 1.4 | N | 120 | 0.0 |
| 14.03.2020 | 15:24 | 10.2 | 61 | 3.0 | 1020.7 | 0.0 | NNO | 121 | 0.0 |
| 14.03.2020 | 15:28 | 10.3 | 62 | 3.3 | 1020.7 | 1.4 | N | 125 | 0.0 |
| 14.03.2020 | 15:34 | 10.3 | 61 | 3.1 | 1020.7 | 3.2 | NNO | 125 | 0.0 |
| 14.03.2020 | 15:38 | 10.3 | 62 | 3.3 | 1020.7 | 3.2 | NNO | 121 | 0.0 |
| 14.03.2020 | 15:44 | 10.3 | 61 | 3.1 | 1020.8 | 1.4 | NNO | 118 | 0.0 |
| 14.03.2020 | 15:48 | 10.2 | 61 | 3.0 | 1020.7 | 1.4 | N | 118 | 0.0 |
| 14.03.2020 | 15:54 | 10.1 | 61 | 2.9 | 1020.7 | 1.4 | N | 118 | 0.0 |
| 14.03.2020 | 15:58 | 10.1 | 63 | 3.4 | 1020.7 | 0.0 | N | 118 | 0.0 |
| 14.03.2020 | 16:04 | 10.1 | 62 | 3.1 | 1020.7 | 0.0 | NNW | 116 | 0.0 |
| 14.03.2020 | 16:08 | 10.1 | 62 | 3.1 | 1020.7 | 0.0 | N | 111 | 0.0 |
| 14.03.2020 | 16:14 | 10.2 | 62 | 3.2 | 1020.8 | 0.0 | NNW | 97 | 0.0 |
| 14.03.2020 | 16:18 | 10.2 | 63 | 3.5 | 1020.8 | 0.0 | NNW | 93 | 0.0 |
| 14.03.2020 | 16:24 | 10.1 | 63 | 3.4 | 1020.8 | 0.0 | NNW | 90 | 0.0 |
| 14.03.2020 | 16:28 | 10.2 | 63 | 3.5 | 1020.8 | 0.0 | NNW | 95 | 0.0 |
| 14.03.2020 | 16:34 | 10.2 | 62 | 3.2 | 1020.8 | 0.0 | NNO | 95 | 0.0 |
| 14.03.2020 | 16:38 | 10.2 | 61 | 3.0 | 1020.9 | 0.0 | NNO | 93 | 0.0 |
| 14.03.2020 | 16:44 | 10.2 | 61 | 3.0 | 1020.8 | 0.0 | NNO | 100 | 0.0 |
| 14.03.2020 | 16:48 | 10.2 | 61 | 3.0 | 1020.8 | 0.0 | NO | 102 | 0.0 |
| 14.03.2020 | 16:54 | 10.2 | 61 | 3.0 | 1020.9 | 0.0 | NO | 98 | 0.0 |
| 14.03.2020 | 16:58 | 10.2 | 63 | 3.5 | 1020.9 | 0.0 | NO | 93 | 0.0 |
| 14.03.2020 | 17:04 | 10.2 | 62 | 3.2 | 1021.0 | 0.0 | ONO | 90 | 0.0 |
| 14.03.2020 | 17:08 | 10.2 | 61 | 3.0 | 1021.0 | 0.0 | ONO | 83 | 0.0 |
| 14.03.2020 | 17:14 | 10.1 | 61 | 2.9 | 1021.0 | 0.0 | NO | 72 | 0.0 |
| 14.03.2020 | 17:18 | 10.1 | 62 | 3.1 | 1021.0 | 0.0 | NO | 65 | 0.0 |
| 14.03.2020 | 17:24 | 10.1 | 61 | 2.9 | 1020.9 | 0.0 | ONO | 98 | 0.0 |
| 14.03.2020 | 17:28 | 10.1 | 61 | 2.9 | 1021.0 | 0.0 | ONO | 79 | 0.0 |
| 14.03.2020 | 17:34 | 10.1 | 62 | 3.1 | 1021.0 | 0.0 | ONO | 62 | 0.0 |
| 14.03.2020 | 17:38 | 10.1 | 62 | 3.1 | 1021.0 | 0.0 | NNO | 60 | 0.0 |
| 14.03.2020 | 17:44 | 9.9 | 62 | 3.0 | 1021.0 | 1.4 | ONO | 60 | 0.0 |
| 14.03.2020 | 17:48 | 9.9 | 62 | 3.0 | 1021.0 | 1.4 | ONO | 58 | 0.0 |
| 14.03.2020 | 17:54 | 9.9 | 62 | 3.0 | 1020.9 | 1.4 | ONO | 54 | 0.0 |
| 14.03.2020 | 17:58 | 9.9 | 62 | 3.0 | 1020.9 | 1.4 | ONO | 51 | 0.0 |
| 14.03.2020 | 18:04 | 9.8 | 62 | 2.9 | 1021.0 | 0.0 | O | 44 | 0.0 |
| 14.03.2020 | 18:08 | 9.8 | 62 | 2.9 | 1020.9 | 0.0 | O | 37 | 0.0 |
| 14.03.2020 | 18:14 | 9.7 | 63 | 3.0 | 1021.0 | 0.0 | ONO | 25 | 0.0 |
| 14.03.2020 | 18:18 | 9.5 | 63 | 2.8 | 1021.0 | 0.0 | O | 16 | 0.0 |
| 14.03.2020 | 18:24 | 9.2 | 64 | 2.7 | 1021.0 | 0.0 | O | 11 | 0.0 |
| 14.03.2020 | 18:28 | 8.9 | 64 | 2.5 | 1021.0 | 0.0 | O | 9 | 0.0 |
| 14.03.2020 | 18:34 | 8.6 | 66 | 2.6 | 1021.1 | 0.0 | O | 5 | 0.0 |
| 14.03.2020 | 18:38 | 8.3 | 66 | 2.3 | 1021.1 | 0.0 | O | 5 | 0.0 |
| 14.03.2020 | 18:44 | 7.9 | 67 | 2.2 | 1021.2 | 0.0 | O | 0 | 0.0 |
| 14.03.2020 | 18:48 | 7.8 | 68 | 2.3 | 1021.2 | 0.0 | OSO | 0 | 0.0 |
| 14.03.2020 | 18:54 | 7.5 | 69 | 2.2 | 1021.3 | 0.0 | OSO | 0 | 0.0 |
| 14.03.2020 | 18:58 | 7.3 | 70 | 2.2 | 1021.4 | 0.0 | OSO | 0 | 0.0 |
| 14.03.2020 | 19:04 | 7.0 | 72 | 2.3 | 1021.4 | 0.0 | OSO | 0 | 0.0 |
| 14.03.2020 | 19:08 | 6.8 | 73 | 2.3 | 1021.4 | 0.0 | OSO | 0 | 0.0 |
| 14.03.2020 | 19:14 | 6.7 | 74 | 2.4 | 1021.4 | 0.0 | OSO | 0 | 0.0 |
| 14.03.2020 | 19:18 | 6.5 | 74 | 2.2 | 1021.4 | 0.0 | OSO | 0 | 0.0 |
| 14.03.2020 | 19:24 | 6.3 | 75 | 2.2 | 1021.4 | 0.0 | OSO | 0 | 0.0 |
| 14.03.2020 | 19:28 | 6.1 | 76 | 2.2 | 1021.5 | 0.0 | OSO | 0 | 0.0 |
| 14.03.2020 | 19:34 | 5.8 | 78 | 2.3 | 1021.5 | 0.0 | OSO | 0 | 0.0 |
| 14.03.2020 | 19:38 | 5.6 | 79 | 2.2 | 1021.5 | 0.0 | OSO | 0 | 0.0 |
| 14.03.2020 | 19:44 | 5.4 | 80 | 2.2 | 1021.6 | 0.0 | OSO | 0 | 0.0 |
| 14.03.2020 | 19:48 | 5.3 | 80 | 2.1 | 1021.6 | 0.0 | OSO | 0 | 0.0 |
| 14.03.2020 | 19:54 | 5.2 | 81 | 2.2 | 1021.6 | 0.0 | OSO | 0 | 0.0 |
| 14.03.2020 | 19:58 | 5.0 | 82 | 2.2 | 1021.6 | 0.0 | OSO | 0 | 0.0 |
| 14.03.2020 | 20:04 | 5.0 | 82 | 2.2 | 1021.7 | 0.0 | OSO | 0 | 0.0 |
| 14.03.2020 | 20:08 | 4.9 | 81 | 1.9 | 1021.7 | 0.0 | OSO | 0 | 0.0 |
| 14.03.2020 | 20:14 | 4.7 | 82 | 1.9 | 1021.6 | 0.0 | OSO | 0 | 0.0 |
| 14.03.2020 | 20:18 | 4.5 | 83 | 1.9 | 1021.6 | 0.0 | OSO | 0 | 0.0 |
| 14.03.2020 | 20:24 | 4.4 | 84 | 1.9 | 1021.7 | 0.0 | OSO | 0 | 0.0 |
| 14.03.2020 | 20:28 | 4.3 | 84 | 1.8 | 1021.7 | 0.0 | OSO | 0 | 0.0 |
| 14.03.2020 | 20:34 | 4.2 | 84 | 1.7 | 1021.6 | 0.0 | OSO | 0 | 0.0 |
| 14.03.2020 | 20:38 | 4.1 | 84 | 1.6 | 1021.6 | 0.0 | OSO | 0 | 0.0 |
| 14.03.2020 | 20:44 | 3.9 | 84 | 1.4 | 1021.6 | 0.0 | OSO | 0 | 0.0 |
| 14.03.2020 | 20:48 | 3.8 | 85 | 1.5 | 1021.7 | 0.0 | OSO | 0 | 0.0 |
| 14.03.2020 | 20:54 | 3.7 | 85 | 1.4 | 1021.8 | 0.0 | OSO | 0 | 0.0 |
| 14.03.2020 | 20:58 | 3.6 | 85 | 1.3 | 1021.8 | 0.0 | OSO | 0 | 0.0 |
| 14.03.2020 | 21:04 | 3.4 | 85 | 1.1 | 1021.8 | 0.0 | OSO | 0 | 0.0 |
| 14.03.2020 | 21:08 | 3.3 | 86 | 1.2 | 1021.8 | 0.0 | OSO | 0 | 0.0 |
| 14.03.2020 | 21:14 | 3.2 | 86 | 1.1 | 1021.8 | 0.0 | OSO | 0 | 0.0 |
| 14.03.2020 | 21:18 | 3.3 | 87 | 1.3 | 1021.8 | 0.0 | OSO | 0 | 0.0 |
| 14.03.2020 | 21:24 | 3.2 | 88 | 1.4 | 1021.8 | 0.0 | OSO | 0 | 0.0 |
| 14.03.2020 | 21:28 | 3.1 | 88 | 1.3 | 1021.8 | 0.0 | OSO | 0 | 0.0 |
| 14.03.2020 | 21:34 | 3.1 | 88 | 1.3 | 1021.7 | 0.0 | OSO | 0 | 0.0 |
| 14.03.2020 | 21:38 | 3.1 | 88 | 1.3 | 1021.8 | 0.0 | OSO | 0 | 0.0 |
| 14.03.2020 | 21:44 | 2.9 | 88 | 1.1 | 1021.8 | 0.0 | OSO | 0 | 0.0 |
| 14.03.2020 | 21:48 | 2.8 | 88 | 1.0 | 1021.7 | 0.0 | OSO | 0 | 0.0 |
| 14.03.2020 | 21:54 | 2.7 | 89 | 1.1 | 1021.7 | 0.0 | OSO | 0 | 0.0 |
| 14.03.2020 | 21:58 | 2.6 | 89 | 1.0 | 1021.6 | 0.0 | OSO | 0 | 0.0 |
| 14.03.2020 | 22:04 | 2.5 | 89 | 0.9 | 1021.7 | 0.0 | OSO | 0 | 0.0 |
| 14.03.2020 | 22:08 | 2.4 | 89 | 0.8 | 1021.6 | 0.0 | OSO | 0 | 0.0 |
| 14.03.2020 | 22:14 | 2.3 | 90 | 0.8 | 1021.7 | 0.0 | NO | 0 | 0.0 |
| 14.03.2020 | 22:18 | 2.3 | 89 | 0.7 | 1021.7 | 0.0 | N | 0 | 0.0 |
| 14.03.2020 | 22:24 | 2.1 | 89 | 0.5 | 1021.8 | 0.0 | N | 0 | 0.0 |
| 14.03.2020 | 22:28 | 1.9 | 89 | 0.3 | 1021.7 | 0.0 | N | 0 | 0.0 |
| 14.03.2020 | 22:34 | 1.9 | 90 | 0.4 | 1021.7 | 0.0 | N | 0 | 0.0 |
| 14.03.2020 | 22:38 | 2.1 | 91 | 0.8 | 1021.7 | 0.0 | N | 0 | 0.0 |
| 14.03.2020 | 22:44 | 2.1 | 91 | 0.8 | 1021.7 | 0.0 | N | 0 | 0.0 |
| 14.03.2020 | 22:48 | 2.2 | 91 | 0.9 | 1021.6 | 0.0 | N | 0 | 0.0 |
| 14.03.2020 | 22:54 | 2.1 | 91 | 0.8 | 1021.5 | 0.0 | N | 0 | 0.0 |
| 14.03.2020 | 22:58 | 2.0 | 91 | 0.7 | 1021.6 | 0.0 | N | 0 | 0.0 |
| 14.03.2020 | 23:04 | 1.8 | 90 | 0.3 | 1021.6 | 0.0 | N | 0 | 0.0 |
| 14.03.2020 | 23:08 | 1.7 | 91 | 0.4 | 1021.5 | 0.0 | N | 0 | 0.0 |
| 14.03.2020 | 23:14 | 1.6 | 90 | 0.1 | 1021.6 | 0.0 | N | 0 | 0.0 |
| 14.03.2020 | 23:18 | 1.4 | 91 | 0.1 | 1021.5 | 0.0 | N | 0 | 0.0 |
| 14.03.2020 | 23:24 | 1.3 | 91 | 0.0 | 1021.5 | 0.0 | N | 0 | 0.0 |
| 14.03.2020 | 23:28 | 1.3 | 91 | 0.0 | 1021.5 | 0.0 | N | 0 | 0.0 |
| 14.03.2020 | 23:34 | 1.3 | 92 | 0.1 | 1021.4 | 0.0 | N | 0 | 0.0 |
| 14.03.2020 | 23:38 | 1.3 | 92 | 0.1 | 1021.4 | 0.0 | N | 0 | 0.0 |
| 14.03.2020 | 23:44 | 1.2 | 92 | 0.0 | 1021.4 | 0.0 | N | 0 | 0.0 |
| 14.03.2020 | 23:48 | 1.2 | 92 | 0.0 | 1021.4 | 0.0 | N | 0 | 0.0 |
| 14.03.2020 | 23:54 | 1.1 | 92 | -0.1 | 1021.3 | 0.0 | N | 0 | 0.0 |
| 14.03.2020 | 23:58 | 1.0 | 92 | -0.2 | 1021.3 | 0.0 | N | 0 | 0.0 |